Time;durP1;ratioP1;P1;durP2;ratioP2;P2;SDS_P1;SDS_P2;PMS_P1;PMS_P2;Temp;Humidity;BMP_temperature;BMP_pressure;BME280_temperature;BME280_humidity;BME280_pressure;Samples;Min_cycle;Max_cycle;Signal;HPM_P1;HPM_P2
2022/10/06 00:01:29;;;;;;;0.00;0.00;;;;;;;;;;5102272;28;20024;-74
2022/10/06 00:03:56;;;;;;;0.00;0.00;;;;;;;;;;5099023;28;20300;-74
2022/10/06 00:06:22;;;;;;;0.00;0.00;;;;;;;;;;5108842;28;20084;-74
2022/10/06 00:08:48;;;;;;;0.00;0.00;;;;;;;;;;5103523;28;20031;-74
2022/10/06 00:11:16;;;;;;;0.00;0.00;;;;;;;;;;5098861;28;20028;-74
2022/10/06 00:13:43;;;;;;;0.00;0.00;;;;;;;;;;5108190;28;20020;-75
2022/10/06 00:16:10;;;;;;;0.00;0.00;;;;;;;;;;5113458;28;20020;-75
2022/10/06 00:18:36;;;;;;;0.00;0.00;;;;;;;;;;5113149;28;20076;-72
2022/10/06 00:21:03;;;;;;;0.00;0.00;;;;;;;;;;5100134;28;20024;-75
2022/10/06 00:23:29;;;;;;;0.00;0.00;;;;;;;;;;5105271;28;20085;-75
2022/10/06 00:25:56;;;;;;;0.00;0.00;;;;;;;;;;5093908;28;20114;-75
2022/10/06 00:28:22;;;;;;;0.00;0.00;;;;;;;;;;5108171;28;20111;-75
2022/10/06 00:30:49;;;;;;;0.65;0.65;;;;;;;;;;5111649;28;20024;-74
2022/10/06 00:33:16;;;;;;;0.35;0.35;;;;;;;;;;5104997;28;20084;-75
2022/10/06 00:35:43;;;;;;;0.00;0.00;;;;;;;;;;5105420;28;20020;-75
2022/10/06 00:38:11;;;;;;;0.00;0.00;;;;;;;;;;5102258;28;20016;-75
2022/10/06 00:40:43;;;;;;;0.00;0.00;;;;;;;;;;5116587;28;20036;-74
2022/10/06 00:43:28;;;;;;;0.00;0.00;;;;;;;;;;5078374;28;20069;-75
2022/10/06 00:45:54;;;;;;;0.00;0.00;;;;;;;;;;5078400;28;20026;-75
2022/10/06 00:48:23;;;;;;;0.05;0.05;;;;;;;;;;5107674;28;20075;-74
2022/10/06 00:50:52;;;;;;;0.00;0.00;;;;;;;;;;5109106;28;20024;-75
2022/10/06 00:53:19;;;;;;;0.00;0.00;;;;;;;;;;5097623;28;20020;-75
2022/10/06 00:55:46;;;;;;;0.00;0.00;;;;;;;;;;5096491;28;20051;-75
2022/10/06 00:58:13;;;;;;;0.00;0.00;;;;;;;;;;5100968;27;20024;-75
2022/10/06 01:00:41;;;;;;;0.00;0.00;;;;;;;;;;5119920;27;20027;-75
2022/10/06 01:03:31;;;;;;;0.00;0.00;;;;;;;;;;5115737;28;20028;-75
2022/10/06 01:05:58;;;;;;;0.00;0.00;;;;;;;;;;5081690;28;20055;-75
2022/10/06 01:08:25;;;;;;;0.00;0.00;;;;;;;;;;5112269;28;20024;-74
2022/10/06 01:10:51;;;;;;;0.00;0.00;;;;;;;;;;5097964;28;20043;-74
2022/10/06 01:13:24;;;;;;;0.00;0.00;;;;;;;;;;5116789;28;20020;-75
2022/10/06 01:15:54;;;;;;;0.00;0.00;;;;;;;;;;5084899;28;20027;-74
2022/10/06 01:18:22;;;;;;;0.00;0.00;;;;;;;;;;5094576;28;20039;-75
2022/10/06 01:20:50;;;;;;;0.00;0.00;;;;;;;;;;5110622;28;20042;-75
2022/10/06 01:23:17;;;;;;;0.00;0.00;;;;;;;;;;5107428;27;20043;-75
2022/10/06 01:25:44;;;;;;;0.00;0.00;;;;;;;;;;5102304;28;20509;-75
2022/10/06 01:28:11;;;;;;;0.00;0.00;;;;;;;;;;5108865;28;20492;-74
2022/10/06 01:30:51;;;;;;;0.00;0.00;;;;;;;;;;5115614;28;20024;-75
2022/10/06 01:33:18;;;;;;;0.00;0.00;;;;;;;;;;5101077;28;20425;-75
2022/10/06 01:35:49;;;;;;;0.00;0.00;;;;;;;;;;5097848;28;20077;-74
2022/10/06 01:38:16;;;;;;;0.00;0.00;;;;;;;;;;5102511;28;20078;-75
2022/10/06 01:40:43;;;;;;;0.00;0.00;;;;;;;;;;5107944;28;20043;-75
2022/10/06 01:43:10;;;;;;;1.08;1.08;;;;;;;;;;5097646;28;20027;-73
2022/10/06 01:45:36;;;;;;;0.00;0.00;;;;;;;;;;5116358;28;20020;-73
2022/10/06 01:48:02;;;;;;;0.00;0.00;;;;;;;;;;5115748;28;20016;-73
2022/10/06 01:50:29;;;;;;;2.10;1.67;;;;;;;;;;5116506;28;20077;-73
2022/10/06 01:52:56;;;;;;;3.38;3.28;;;;;;;;;;5115817;28;20023;-73
2022/10/06 01:55:23;;;;;;;0.00;0.00;;;;;;;;;;5116107;28;20047;-74
2022/10/06 01:57:49;;;;;;;0.00;0.00;;;;;;;;;;5126926;27;20477;-73
2022/10/06 02:00:16;;;;;;;13.38;12.25;;;;;;;;;;5118371;27;20024;-73
2022/10/06 02:02:42;;;;;;;0.17;0.17;;;;;;;;;;5102972;28;20031;-74
2022/10/06 02:05:09;;;;;;;0.00;0.00;;;;;;;;;;5094835;28;20090;-73
2022/10/06 02:07:36;;;;;;;0.00;0.00;;;;;;;;;;5120753;28;20020;-74
2022/10/06 02:10:03;;;;;;;0.00;0.00;;;;;;;;;;5101962;28;20051;-73
2022/10/06 02:12:30;;;;;;;0.10;0.10;;;;;;;;;;5112189;27;20024;-74
2022/10/06 02:14:57;;;;;;;0.60;0.60;;;;;;;;;;5088194;28;20024;-78
2022/10/06 02:17:23;;;;;;;0.00;0.00;;;;;;;;;;5099621;28;20028;-77
2022/10/06 02:19:49;;;;;;;0.00;0.00;;;;;;;;;;5113370;27;20028;-78
2022/10/06 02:22:16;;;;;;;0.00;0.00;;;;;;;;;;5110598;28;20107;-77
2022/10/06 02:24:42;;;;;;;1.55;1.45;;;;;;;;;;5096752;28;20028;-75
2022/10/06 02:27:09;;;;;;;0.00;0.00;;;;;;;;;;5107813;27;20024;-72
2022/10/06 02:29:35;;;;;;;0.63;0.63;;;;;;;;;;5112510;28;20034;-73
2022/10/06 02:32:02;;;;;;;1.60;1.15;;;;;;;;;;5113786;28;20024;-72
2022/10/06 02:34:28;;;;;;;5.43;2.83;;;;;;;;;;5089450;28;20032;-71
2022/10/06 02:36:54;;;;;;;1.30;0.80;;;;;;;;;;5083496;28;20527;-76
2022/10/06 02:39:21;;;;;;;0.00;0.00;;;;;;;;;;5083587;28;20073;-77
2022/10/06 02:41:47;;;;;;;0.00;0.00;;;;;;;;;;5106599;28;20520;-76
2022/10/06 02:44:14;;;;;;;0.00;0.00;;;;;;;;;;5085284;28;20036;-76
2022/10/06 02:46:40;;;;;;;0.10;0.10;;;;;;;;;;5106919;27;20122;-76
2022/10/06 02:49:07;;;;;;;47.33;3.85;;;;;;;;;;5087717;28;20024;-76
2022/10/06 02:51:33;;;;;;;1.35;1.13;;;;;;;;;;5089201;28;20023;-76
2022/10/06 02:53:59;;;;;;;10.52;7.63;;;;;;;;;;5085139;28;20110;-76
2022/10/06 02:56:26;;;;;;;0.82;0.65;;;;;;;;;;5082605;28;20023;-76
2022/10/06 02:58:56;;;;;;;0.15;0.15;;;;;;;;;;5083093;27;20451;-75
2022/10/06 03:01:24;;;;;;;0.00;0.00;;;;;;;;;;5100297;27;20024;-76
2022/10/06 03:03:50;;;;;;;1.08;1.08;;;;;;;;;;5109629;27;20381;-77
2022/10/06 03:06:21;;;;;;;0.20;0.20;;;;;;;;;;5083243;28;20023;-76
2022/10/06 03:08:48;;;;;;;2.05;1.67;;;;;;;;;;5104510;27;20419;-78
2022/10/06 03:11:15;;;;;;;3.50;2.95;;;;;;;;;;5089875;28;20016;-80
2022/10/06 03:13:41;;;;;;;0.00;0.00;;;;;;;;;;5108860;27;20024;-81
2022/10/06 03:16:14;;;;;;;6.38;2.90;;;;;;;;;;5109153;27;20055;-78
2022/10/06 03:18:43;;;;;;;0.10;0.10;;;;;;;;;;5088362;28;20050;-77
2022/10/06 03:21:09;;;;;;;0.00;0.00;;;;;;;;;;5102195;28;20084;-77
2022/10/06 03:23:35;;;;;;;3.95;3.40;;;;;;;;;;5117791;27;20470;-80
2022/10/06 03:26:01;;;;;;;0.00;0.00;;;;;;;;;;5098656;28;20032;-80
2022/10/06 03:28:29;;;;;;;0.43;0.43;;;;;;;;;;5081930;28;20044;-77
2022/10/06 03:31:01;;;;;;;1.30;1.20;;;;;;;;;;5075779;28;20024;-77
2022/10/06 03:33:28;;;;;;;6.75;3.42;;;;;;;;;;5096622;28;20110;-76
2022/10/06 03:35:58;;;;;;;0.00;0.00;;;;;;;;;;5098899;28;20024;-76
2022/10/06 03:38:24;;;;;;;2.10;2.00;;;;;;;;;;5083476;28;20118;-77
2022/10/06 03:40:51;;;;;;;0.00;0.00;;;;;;;;;;5104346;28;20127;-76
2022/10/06 03:43:17;;;;;;;0.00;0.00;;;;;;;;;;5102959;28;20404;-76
2022/10/06 03:45:43;;;;;;;7.82;3.10;;;;;;;;;;5101869;28;20031;-75
2022/10/06 03:48:10;;;;;;;0.95;0.95;;;;;;;;;;5106038;28;20072;-75
2022/10/06 03:50:36;;;;;;;3.72;1.55;;;;;;;;;;5102232;28;20016;-76
2022/10/06 03:53:02;;;;;;;0.15;0.15;;;;;;;;;;5103546;28;20028;-77
2022/10/06 03:55:29;;;;;;;29.27;7.05;;;;;;;;;;5085661;28;20046;-80
2022/10/06 03:57:56;;;;;;;3.50;2.78;;;;;;;;;;5105891;27;20181;-76
2022/10/06 04:00:22;;;;;;;4.57;4.18;;;;;;;;;;5087767;28;20603;-80
2022/10/06 04:02:49;;;;;;;0.80;0.80;;;;;;;;;;5087678;28;20038;-75
2022/10/06 04:05:16;;;;;;;3.78;2.92;;;;;;;;;;5098885;28;20023;-75
2022/10/06 04:07:42;;;;;;;4.18;3.75;;;;;;;;;;5098975;27;20026;-75
2022/10/06 04:10:09;;;;;;;0.00;0.00;;;;;;;;;;5100470;27;20390;-75
2022/10/06 04:12:35;;;;;;;0.75;0.75;;;;;;;;;;5092791;28;20081;-74
2022/10/06 04:15:02;;;;;;;18.25;1.65;;;;;;;;;;5087103;28;20507;-73
2022/10/06 04:17:28;;;;;;;3.05;2.95;;;;;;;;;;5101352;28;20519;-73
2022/10/06 04:19:54;;;;;;;0.13;0.13;;;;;;;;;;5098516;28;20050;-75
2022/10/06 04:22:21;;;;;;;15.07;4.05;;;;;;;;;;5100480;28;20051;-73
2022/10/06 04:24:47;;;;;;;1.10;1.00;;;;;;;;;;5083158;28;20046;-74
2022/10/06 04:27:29;;;;;;;0.15;0.15;;;;;;;;;;5115205;28;20041;-73
2022/10/06 04:29:55;;;;;;;2.83;2.55;;;;;;;;;;5076784;28;20093;-77
2022/10/06 04:32:22;;;;;;;0.00;0.00;;;;;;;;;;5103218;28;20020;-75
2022/10/06 04:34:48;;;;;;;6.07;5.78;;;;;;;;;;5090052;28;20059;-76
2022/10/06 04:37:15;;;;;;;3.95;3.72;;;;;;;;;;5104027;28;20074;-75
2022/10/06 04:39:42;;;;;;;0.20;0.20;;;;;;;;;;5083148;28;20488;-76
2022/10/06 04:42:09;;;;;;;0.08;0.08;;;;;;;;;;5098195;28;20082;-75
2022/10/06 04:44:35;;;;;;;0.00;0.00;;;;;;;;;;5102597;28;20037;-73
2022/10/06 04:47:02;;;;;;;0.43;0.43;;;;;;;;;;5106159;28;20024;-73
2022/10/06 04:49:29;;;;;;;0.13;0.00;;;;;;;;;;5096081;28;20020;-73
2022/10/06 04:51:55;;;;;;;4.38;4.18;;;;;;;;;;5105096;28;20073;-73
2022/10/06 04:54:21;;;;;;;11.80;1.85;;;;;;;;;;5096349;28;21695;-73
2022/10/06 04:56:48;;;;;;;3.92;1.77;;;;;;;;;;5099030;28;20062;-74
2022/10/06 04:59:15;;;;;;;0.10;0.10;;;;;;;;;;5083543;28;20127;-73
2022/10/06 05:01:41;;;;;;;3.05;2.80;;;;;;;;;;5104235;28;20059;-74
2022/10/06 05:04:07;;;;;;;0.00;0.00;;;;;;;;;;5101288;28;20414;-73
2022/10/06 05:06:38;;;;;;;1.48;1.38;;;;;;;;;;5096987;28;20508;-76
2022/10/06 05:09:08;;;;;;;4.03;2.47;;;;;;;;;;5101211;28;20035;-73
2022/10/06 05:11:35;;;;;;;10.82;0.60;;;;;;;;;;5082736;28;20019;-73
2022/10/06 05:14:01;;;;;;;1.63;1.52;;;;;;;;;;5083486;28;20054;-74
2022/10/06 05:16:29;;;;;;;12.35;6.93;;;;;;;;;;5079066;28;20016;-74
2022/10/06 05:18:55;;;;;;;0.13;0.13;;;;;;;;;;5089688;28;20030;-73
2022/10/06 05:21:27;;;;;;;1.80;1.75;;;;;;;;;;5105658;27;20035;-74
2022/10/06 05:23:53;;;;;;;0.00;0.00;;;;;;;;;;5096622;28;20062;-73
2022/10/06 05:26:21;;;;;;;3.22;3.10;;;;;;;;;;5103112;28;20024;-74
2022/10/06 05:28:48;;;;;;;1.70;1.58;;;;;;;;;;5102585;28;20049;-72
2022/10/06 05:31:16;;;;;;;0.00;0.00;;;;;;;;;;5082608;28;20028;-73
2022/10/06 05:33:42;;;;;;;6.78;4.00;;;;;;;;;;5104311;27;20039;-73
2022/10/06 05:36:13;;;;;;;3.30;3.10;;;;;;;;;;5104213;27;20020;-73
2022/10/06 05:38:40;;;;;;;1.77;1.67;;;;;;;;;;5085464;28;20027;-74
2022/10/06 05:41:13;;;;;;;1.15;1.13;;;;;;;;;;5101341;28;20079;-78
2022/10/06 05:43:40;;;;;;;1.88;1.77;;;;;;;;;;5110363;27;20028;-77
2022/10/06 05:46:07;;;;;;;0.00;0.00;;;;;;;;;;5103295;27;20020;-77
2022/10/06 05:48:34;;;;;;;13.32;12.07;;;;;;;;;;5100059;28;20028;-77
2022/10/06 05:51:01;;;;;;;0.00;0.00;;;;;;;;;;5101468;27;20062;-78
2022/10/06 05:53:28;;;;;;;1.75;1.65;;;;;;;;;;5097807;28;20051;-79
2022/10/06 05:56:15;;;;;;;46.13;8.80;;;;;;;;;;5091185;27;20099;-80
2022/10/06 05:58:42;;;;;;;3.40;1.67;;;;;;;;;;5081610;28;20127;-78
2022/10/06 06:01:08;;;;;;;1.02;1.02;;;;;;;;;;5099995;27;20161;-76
2022/10/06 06:03:35;;;;;;;1.65;1.55;;;;;;;;;;5108543;27;20023;-77
2022/10/06 06:06:01;;;;;;;0.00;0.00;;;;;;;;;;5095287;27;20027;-77
2022/10/06 06:08:27;;;;;;;9.90;1.48;;;;;;;;;;5099653;28;20027;-77
2022/10/06 06:10:54;;;;;;;0.35;0.20;;;;;;;;;;5081956;27;20119;-76
2022/10/06 06:13:20;;;;;;;0.52;0.52;;;;;;;;;;5100529;28;20458;-76
2022/10/06 06:15:59;;;;;;;0.00;0.00;;;;;;;;;;5104813;27;20034;-77
2022/10/06 06:18:26;;;;;;;0.00;0.00;;;;;;;;;;5099865;28;20106;-77
2022/10/06 06:20:56;;;;;;;0.25;0.25;;;;;;;;;;5101121;28;20016;-76
2022/10/06 06:23:23;;;;;;;2.20;2.10;;;;;;;;;;5104032;27;20028;-76
2022/10/06 06:25:59;;;;;;;0.45;0.45;;;;;;;;;;5098777;28;20023;-76
2022/10/06 06:28:27;;;;;;;2.20;1.13;;;;;;;;;;5099607;27;20024;-76
2022/10/06 06:31:04;;;;;;;8.40;3.50;;;;;;;;;;5096845;28;20053;-77
2022/10/06 06:33:30;;;;;;;0.63;0.55;;;;;;;;;;5097370;27;20762;-77
2022/10/06 06:36:00;;;;;;;0.50;0.50;;;;;;;;;;5077485;28;20565;-76
2022/10/06 06:38:26;;;;;;;1.95;1.85;;;;;;;;;;5094744;27;20022;-77
2022/10/06 06:40:53;;;;;;;1.05;0.95;;;;;;;;;;5099347;28;20048;-76
2022/10/06 06:43:19;;;;;;;0.15;0.15;;;;;;;;;;5094809;27;20367;-76
2022/10/06 06:45:45;;;;;;;0.55;0.55;;;;;;;;;;5075818;28;20023;-75
2022/10/06 06:48:15;;;;;;;0.00;0.00;;;;;;;;;;5103334;27;20058;-75
2022/10/06 06:50:42;;;;;;;0.65;0.65;;;;;;;;;;5079595;28;20055;-76
2022/10/06 06:53:09;;;;;;;0.32;0.25;;;;;;;;;;5087229;28;20069;-76
2022/10/06 06:55:35;;;;;;;1.50;1.40;;;;;;;;;;5083497;28;20081;-77
2022/10/06 06:58:01;;;;;;;0.00;0.00;;;;;;;;;;5082451;28;20024;-77
2022/10/06 07:00:28;;;;;;;0.68;0.35;;;;;;;;;;5100255;27;20031;-76
2022/10/06 07:02:59;;;;;;;0.00;0.00;;;;;;;;;;5088343;27;20077;-76
2022/10/06 07:05:26;;;;;;;0.00;0.00;;;;;;;;;;5100270;27;20031;-76
2022/10/06 07:07:52;;;;;;;4.25;4.07;;;;;;;;;;5099859;28;20996;-76
2022/10/06 07:10:26;;;;;;;19.08;7.13;;;;;;;;;;5076400;28;20036;-78
2022/10/06 07:12:52;;;;;;;0.15;0.15;;;;;;;;;;5095756;28;20016;-77
2022/10/06 07:26:18;;;;;;;0.20;0.20;;;;;;;;;;5096405;28;21203;-75
2022/10/06 07:28:44;;;;;;;0.10;0.10;;;;;;;;;;5084319;28;20486;-75
2022/10/06 07:31:10;;;;;;;0.00;0.00;;;;;;;;;;5107140;27;20024;-75
2022/10/06 07:33:39;;;;;;;0.03;0.03;;;;;;;;;;5084132;28;20436;-74
2022/10/06 07:36:06;;;;;;;0.43;0.38;;;;;;;;;;5100191;28;20016;-73
2022/10/06 07:38:32;;;;;;;0.00;0.00;;;;;;;;;;5095503;28;20057;-74
2022/10/06 07:40:58;;;;;;;0.00;0.00;;;;;;;;;;5111049;27;20077;-79
2022/10/06 07:43:25;;;;;;;2.95;1.23;;;;;;;;;;5101445;27;20399;-78
2022/10/06 07:45:51;;;;;;;0.80;0.80;;;;;;;;;;5105593;27;20053;-78
2022/10/06 07:48:19;;;;;;;0.30;0.30;;;;;;;;;;5097077;27;20031;-79
2022/10/06 07:50:49;;;;;;;0.00;0.00;;;;;;;;;;5099685;27;20099;-80
2022/10/06 07:53:17;;;;;;;0.88;0.88;;;;;;;;;;5102832;27;20038;-79
2022/10/06 07:55:44;;;;;;;0.00;0.00;;;;;;;;;;5101705;27;20027;-79
2022/10/06 07:58:14;;;;;;;0.00;0.00;;;;;;;;;;5107831;28;20039;-81
2022/10/06 08:00:41;;;;;;;0.00;0.00;;;;;;;;;;5107013;27;20084;-80
2022/10/06 08:03:08;;;;;;;0.38;0.38;;;;;;;;;;5090605;28;20650;-80
2022/10/06 08:05:35;;;;;;;0.98;0.98;;;;;;;;;;5101191;27;20024;-78
2022/10/06 08:08:01;;;;;;;0.70;0.45;;;;;;;;;;5095137;28;20513;-78
2022/10/06 08:10:27;;;;;;;0.82;0.80;;;;;;;;;;5097838;28;21706;-76
2022/10/06 08:12:54;;;;;;;0.00;0.00;;;;;;;;;;5096775;27;20020;-76
2022/10/06 08:15:20;;;;;;;0.00;0.00;;;;;;;;;;5095568;28;20058;-79
2022/10/06 08:17:47;;;;;;;0.00;0.00;;;;;;;;;;5099927;28;20066;-78
2022/10/06 08:20:15;;;;;;;0.52;0.32;;;;;;;;;;5084237;28;20028;-77
2022/10/06 08:22:42;;;;;;;0.00;0.00;;;;;;;;;;5083628;28;20024;-77
2022/10/06 08:25:09;;;;;;;0.00;0.00;;;;;;;;;;5082546;28;20019;-78
2022/10/06 08:27:36;;;;;;;1.48;1.38;;;;;;;;;;5098707;28;20024;-78
2022/10/06 08:30:06;;;;;;;0.98;0.82;;;;;;;;;;5084719;28;20035;-78
2022/10/06 08:32:33;;;;;;;1.10;0.55;;;;;;;;;;5097568;28;20486;-77
2022/10/06 08:34:59;;;;;;;4.75;1.20;;;;;;;;;;5099543;28;20032;-77
2022/10/06 08:37:26;;;;;;;0.00;0.00;;;;;;;;;;5080803;28;20428;-76
2022/10/06 08:39:55;;;;;;;0.00;0.00;;;;;;;;;;5099844;28;20043;-76
2022/10/06 08:42:33;;;;;;;0.00;0.00;;;;;;;;;;5097030;28;20898;-77
2022/10/06 08:45:03;;;;;;;0.35;0.00;;;;;;;;;;5098940;28;20546;-77
2022/10/06 08:47:33;;;;;;;0.73;0.73;;;;;;;;;;5082801;28;20027;-77
2022/10/06 08:50:00;;;;;;;0.00;0.00;;;;;;;;;;5098908;28;20024;-76
2022/10/06 08:52:29;;;;;;;0.08;0.08;;;;;;;;;;5101994;28;20016;-76
2022/10/06 08:55:10;;;;;;;0.63;0.63;;;;;;;;;;5077867;28;20114;-75
2022/10/06 08:57:43;;;;;;;1.27;1.27;;;;;;;;;;5099886;27;20451;-74
2022/10/06 09:00:13;;;;;;;0.13;0.13;;;;;;;;;;5099427;27;20035;-76
2022/10/06 09:02:42;;;;;;;1.20;0.93;;;;;;;;;;5098567;27;20032;-75
2022/10/06 09:05:12;;;;;;;0.00;0.00;;;;;;;;;;5100931;27;20055;-74
2022/10/06 09:07:42;;;;;;;5.25;4.95;;;;;;;;;;5108576;27;20493;-75
2022/10/06 09:10:22;;;;;;;0.00;0.00;;;;;;;;;;5089541;28;21674;-75
2022/10/06 09:13:08;;;;;;;0.00;0.00;;;;;;;;;;5105369;27;20051;-76
2022/10/06 09:15:41;;;;;;;0.00;0.00;;;;;;;;;;5102539;27;20042;-74
2022/10/06 09:18:26;;;;;;;0.00;0.00;;;;;;;;;;5102779;27;20020;-75
2022/10/06 09:20:52;;;;;;;0.00;0.00;;;;;;;;;;5100532;28;20016;-75
2022/10/06 09:26:05;;;;;;;0.00;0.00;;;;;;;;;;5106752;27;20050;-77
2022/10/06 09:28:32;;;;;;;0.00;0.00;;;;;;;;;;5101300;27;20061;-74
2022/10/06 09:31:01;;;;;;;0.00;0.00;;;;;;;;;;5086641;28;20038;-77
2022/10/06 09:33:32;;;;;;;0.73;0.57;;;;;;;;;;5099106;28;20070;-74
2022/10/06 09:36:08;;;;;;;2.55;0.15;;;;;;;;;;5104431;28;20047;-76
2022/10/06 09:39:07;;;;;;;0.00;0.00;;;;;;;;;;5083738;28;20069;-75
2022/10/06 09:41:43;;;;;;;0.30;0.30;;;;;;;;;;5059571;28;20048;-75
2022/10/06 09:44:22;;;;;;;2.20;1.85;;;;;;;;;;5086573;28;20504;-73
2022/10/06 09:46:48;;;;;;;0.00;0.00;;;;;;;;;;5108559;27;20034;-76
2022/10/06 09:49:16;;;;;;;0.70;0.20;;;;;;;;;;5086973;28;20539;-74
2022/10/06 09:51:57;;;;;;;0.85;0.85;;;;;;;;;;5103487;28;20020;-74
2022/10/06 09:54:24;;;;;;;0.00;0.00;;;;;;;;;;5100497;28;20020;-72
2022/10/06 09:56:52;;;;;;;0.00;0.00;;;;;;;;;;5102023;27;20035;-72
2022/10/06 09:59:28;;;;;;;2.80;2.35;;;;;;;;;;5101289;27;20023;-72
2022/10/06 10:01:55;;;;;;;0.00;0.00;;;;;;;;;;5089693;28;20020;-74
2022/10/06 10:04:25;;;;;;;0.00;0.00;;;;;;;;;;5108481;28;20038;-73
2022/10/06 10:06:52;;;;;;;0.00;0.00;;;;;;;;;;5085573;28;20028;-73
2022/10/06 10:09:29;;;;;;;0.10;0.10;;;;;;;;;;5081091;28;20168;-73
2022/10/06 10:12:28;;;;;;;3.60;3.03;;;;;;;;;;5087190;28;20028;-73
2022/10/06 10:14:56;;;;;;;9.13;1.20;;;;;;;;;;5098134;28;20047;-72
2022/10/06 10:17:34;;;;;;;0.00;0.00;;;;;;;;;;5100472;27;20020;-72
2022/10/06 10:20:02;;;;;;;0.00;0.00;;;;;;;;;;5103521;27;20035;-74
2022/10/06 10:22:39;;;;;;;1.75;1.65;;;;;;;;;;5082277;28;20028;-74
2022/10/06 10:25:24;;;;;;;3.70;0.38;;;;;;;;;;5099666;28;20556;-73
2022/10/06 10:27:50;;;;;;;0.20;0.20;;;;;;;;;;5091515;27;20392;-72
2022/10/06 10:30:17;;;;;;;0.00;0.00;;;;;;;;;;5107739;27;20016;-73
2022/10/06 10:32:44;;;;;;;0.00;0.00;;;;;;;;;;5100406;27;20164;-72
2022/10/06 10:35:22;;;;;;;6.90;6.45;;;;;;;;;;5081214;28;20020;-72
2022/10/06 10:38:03;;;;;;;0.00;0.00;;;;;;;;;;5080510;28;20426;-73
2022/10/06 10:40:47;;;;;;;0.20;0.20;;;;;;;;;;5102303;27;20042;-73
2022/10/06 10:43:17;;;;;;;0.08;0.08;;;;;;;;;;5108501;27;20026;-73
2022/10/06 10:45:57;;;;;;;0.00;0.00;;;;;;;;;;5100528;27;22027;-74
2022/10/06 10:48:42;;;;;;;0.00;0.00;;;;;;;;;;5080111;28;20040;-73
2022/10/06 10:51:27;;;;;;;0.00;0.00;;;;;;;;;;5097249;28;20165;-73
2022/10/06 10:54:04;;;;;;;0.00;0.00;;;;;;;;;;5098617;28;20073;-73
2022/10/06 10:56:32;;;;;;;0.38;0.38;;;;;;;;;;5099788;27;20387;-74
2022/10/06 10:59:13;;;;;;;0.32;0.28;;;;;;;;;;5106724;27;20028;-76
2022/10/06 11:01:58;;;;;;;0.00;0.00;;;;;;;;;;5100561;27;20053;-74
2022/10/06 11:04:24;;;;;;;0.00;0.00;;;;;;;;;;5107533;27;20565;-73
2022/10/06 11:07:09;;;;;;;6.15;5.85;;;;;;;;;;5113209;27;20027;-73
2022/10/06 11:09:52;;;;;;;0.00;0.00;;;;;;;;;;5095277;28;20028;-74
2022/10/06 11:12:37;;;;;;;0.35;0.35;;;;;;;;;;5100942;27;20120;-74
2022/10/06 11:15:17;;;;;;;0.00;0.00;;;;;;;;;;5090995;28;20015;-75
2022/10/06 11:17:45;;;;;;;0.00;0.00;;;;;;;;;;5102844;28;20028;-75
2022/10/06 11:20:31;;;;;;;0.00;0.00;;;;;;;;;;5086700;27;20028;-74
2022/10/06 11:23:17;;;;;;;0.10;0.10;;;;;;;;;;5107761;27;20038;-75
2022/10/06 11:26:02;;;;;;;0.00;0.00;;;;;;;;;;5104176;27;20024;-74
2022/10/06 11:28:35;;;;;;;0.38;0.38;;;;;;;;;;5101002;28;20545;-75
2022/10/06 11:31:18;;;;;;;0.00;0.00;;;;;;;;;;5080600;27;20042;-73
2022/10/06 11:33:53;;;;;;;0.00;0.00;;;;;;;;;;5085965;28;20024;-73
2022/10/06 11:36:30;;;;;;;0.00;0.00;;;;;;;;;;5097417;28;20266;-75
2022/10/06 11:39:20;;;;;;;0.00;0.00;;;;;;;;;;5099296;27;20040;-75
2022/10/06 11:42:09;;;;;;;0.00;0.00;;;;;;;;;;5068335;28;20122;-74
2022/10/06 11:44:43;;;;;;;0.00;0.00;;;;;;;;;;5103237;28;20073;-74
2022/10/06 11:47:23;;;;;;;0.00;0.00;;;;;;;;;;5088437;28;20024;-74
2022/10/06 11:49:54;;;;;;;0.98;0.98;;;;;;;;;;5107993;28;20051;-75
2022/10/06 11:52:21;;;;;;;0.00;0.00;;;;;;;;;;5098957;27;20016;-73
2022/10/06 11:54:51;;;;;;;0.00;0.00;;;;;;;;;;5098375;28;20101;-72
2022/10/06 11:57:23;;;;;;;0.00;0.00;;;;;;;;;;5107418;27;20023;-73
2022/10/06 11:59:54;;;;;;;0.00;0.00;;;;;;;;;;5102076;27;20023;-72
2022/10/06 12:02:29;;;;;;;0.00;0.00;;;;;;;;;;5108542;28;20035;-72
2022/10/06 12:05:22;;;;;;;1.00;0.95;;;;;;;;;;5103249;27;20035;-72
2022/10/06 12:07:51;;;;;;;0.00;0.00;;;;;;;;;;5077801;28;20043;-71
2022/10/06 12:10:27;;;;;;;0.15;0.15;;;;;;;;;;5106726;28;20035;-72
2022/10/06 12:12:56;;;;;;;0.00;0.00;;;;;;;;;;5105129;28;20016;-73
2022/10/06 12:15:35;;;;;;;0.00;0.00;;;;;;;;;;5101196;28;20019;-73
2022/10/06 12:18:04;;;;;;;0.52;0.52;;;;;;;;;;5100425;28;20023;-72
2022/10/06 12:20:33;;;;;;;0.00;0.00;;;;;;;;;;5098480;28;20538;-72
2022/10/06 12:23:08;;;;;;;0.00;0.00;;;;;;;;;;5099195;28;20120;-73
2022/10/06 12:25:41;;;;;;;0.00;0.00;;;;;;;;;;5099654;28;20036;-74
2022/10/06 12:28:16;;;;;;;2.97;2.88;;;;;;;;;;5105334;28;20051;-75
2022/10/06 12:31:03;;;;;;;0.00;0.00;;;;;;;;;;5102916;27;20035;-73
2022/10/06 12:33:37;;;;;;;2.40;2.20;;;;;;;;;;5106806;27;20418;-73
2022/10/06 12:36:04;;;;;;;1.35;0.20;;;;;;;;;;5105100;27;20016;-72
2022/10/06 12:38:31;;;;;;;7.63;7.25;;;;;;;;;;5110381;27;20020;-72
2022/10/06 12:40:58;;;;;;;0.00;0.00;;;;;;;;;;5115178;27;20481;-73
2022/10/06 12:43:31;;;;;;;2.40;2.30;;;;;;;;;;5098983;27;20027;-74
2022/10/06 12:46:06;;;;;;;0.32;0.30;;;;;;;;;;5106763;27;20051;-73
2022/10/06 12:48:45;;;;;;;0.00;0.00;;;;;;;;;;5109926;28;20461;-73
2022/10/06 12:51:24;;;;;;;0.10;0.10;;;;;;;;;;5112880;28;20036;-72
2022/10/06 12:53:57;;;;;;;0.00;0.00;;;;;;;;;;5095072;28;20548;-72
2022/10/06 12:56:27;;;;;;;0.00;0.00;;;;;;;;;;5112149;28;20063;-72
2022/10/06 12:58:53;;;;;;;0.00;0.00;;;;;;;;;;5089487;28;20442;-74
2022/10/06 13:01:21;;;;;;;0.00;0.00;;;;;;;;;;5110681;28;20531;-72
2022/10/06 13:03:51;;;;;;;0.00;0.00;;;;;;;;;;5094030;28;20039;-73
2022/10/06 13:06:22;;;;;;;0.00;0.00;;;;;;;;;;5110379;27;20381;-76
2022/10/06 13:09:02;;;;;;;0.10;0.10;;;;;;;;;;5091083;28;20035;-74
2022/10/06 13:11:28;;;;;;;0.88;0.88;;;;;;;;;;5122897;27;20024;-74
2022/10/06 13:13:57;;;;;;;0.00;0.00;;;;;;;;;;5107303;28;20099;-76
2022/10/06 13:16:25;;;;;;;0.00;0.00;;;;;;;;;;5085929;28;20085;-76
2022/10/06 13:18:53;;;;;;;0.00;0.00;;;;;;;;;;5085891;28;20020;-75
2022/10/06 13:21:22;;;;;;;0.00;0.00;;;;;;;;;;5093681;27;20478;-75
2022/10/06 13:23:50;;;;;;;0.00;0.00;;;;;;;;;;5089097;28;20035;-75
2022/10/06 13:26:33;;;;;;;0.10;0.10;;;;;;;;;;5089549;28;20039;-75
2022/10/06 13:29:00;;;;;;;0.00;0.00;;;;;;;;;;5127591;27;20073;-75
2022/10/06 13:31:33;;;;;;;0.00;0.00;;;;;;;;;;5140435;27;20039;-73
2022/10/06 13:34:04;;;;;;;0.00;0.00;;;;;;;;;;5123955;27;20019;-73
2022/10/06 13:36:35;;;;;;;0.03;0.03;;;;;;;;;;5108377;27;20125;-75
2022/10/06 13:39:06;;;;;;;0.00;0.00;;;;;;;;;;5126914;27;20155;-76
2022/10/06 13:41:35;;;;;;;0.00;0.00;;;;;;;;;;5099581;28;20370;-75
2022/10/06 13:44:02;;;;;;;9.23;8.77;;;;;;;;;;5112161;27;20030;-74
2022/10/06 13:46:32;;;;;;;0.00;0.00;;;;;;;;;;5099583;28;20034;-74
2022/10/06 13:49:03;;;;;;;0.00;0.00;;;;;;;;;;5081443;28;20493;-73
2022/10/06 13:51:30;;;;;;;3.10;2.95;;;;;;;;;;5092695;28;20470;-75
2022/10/06 13:53:58;;;;;;;0.00;0.00;;;;;;;;;;5099258;28;20028;-75
2022/10/06 13:56:35;;;;;;;0.00;0.00;;;;;;;;;;5095895;28;20549;-75
2022/10/06 13:59:21;;;;;;;0.00;0.00;;;;;;;;;;5093688;28;20028;-75
2022/10/06 14:01:48;;;;;;;0.00;0.00;;;;;;;;;;5107281;27;20049;-74
2022/10/06 14:04:17;;;;;;;8.77;0.98;;;;;;;;;;5105372;27;20115;-74
2022/10/06 14:06:49;;;;;;;1.00;1.00;;;;;;;;;;5105428;27;20031;-75
2022/10/06 14:09:24;;;;;;;0.00;0.00;;;;;;;;;;5104757;28;20062;-74
2022/10/06 14:11:51;;;;;;;0.20;0.20;;;;;;;;;;5093812;27;20384;-76
2022/10/06 14:14:18;;;;;;;0.00;0.00;;;;;;;;;;5087438;28;20027;-75
2022/10/06 14:16:48;;;;;;;0.00;0.00;;;;;;;;;;5113837;28;20023;-73
2022/10/06 14:19:47;;;;;;;0.00;0.00;;;;;;;;;;5114061;27;20513;-74
2022/10/06 14:22:39;;;;;;;0.00;0.00;;;;;;;;;;5044316;28;20075;-75
2022/10/06 14:25:14;;;;;;;0.00;0.00;;;;;;;;;;5090880;28;20138;-74
2022/10/06 14:27:40;;;;;;;0.00;0.00;;;;;;;;;;5102317;27;20409;-74
2022/10/06 14:30:07;;;;;;;11.60;1.17;;;;;;;;;;5108386;28;20035;-74
2022/10/06 14:32:33;;;;;;;0.00;0.00;;;;;;;;;;5097113;27;20071;-73
2022/10/06 14:35:01;;;;;;;0.00;0.00;;;;;;;;;;5106892;27;20478;-72
2022/10/06 14:37:28;;;;;;;0.00;0.00;;;;;;;;;;5096932;27;20023;-73
2022/10/06 14:39:55;;;;;;;0.00;0.00;;;;;;;;;;5111848;27;20026;-73
2022/10/06 14:42:23;;;;;;;0.00;0.00;;;;;;;;;;5083175;28;20052;-73
2022/10/06 14:44:51;;;;;;;0.00;0.00;;;;;;;;;;5112550;28;20035;-74
2022/10/06 14:47:17;;;;;;;0.52;0.52;;;;;;;;;;5096480;28;20412;-74
2022/10/06 14:49:44;;;;;;;0.20;0.20;;;;;;;;;;5090660;28;20042;-73
2022/10/06 14:52:10;;;;;;;0.00;0.00;;;;;;;;;;5085398;28;20024;-72
2022/10/06 14:54:37;;;;;;;0.00;0.00;;;;;;;;;;5093349;28;20024;-73
2022/10/06 14:57:04;;;;;;;0.00;0.00;;;;;;;;;;5094173;28;20024;-73
2022/10/06 14:59:32;;;;;;;0.00;0.00;;;;;;;;;;5099766;27;20024;-73
2022/10/06 15:01:58;;;;;;;2.20;2.08;;;;;;;;;;5102186;27;20032;-72
2022/10/06 15:04:26;;;;;;;0.08;0.08;;;;;;;;;;5085411;28;20089;-73
2022/10/06 15:09:37;;;;;;;0.00;0.00;;;;;;;;;;5101128;28;20043;-72
2022/10/06 15:12:04;;;;;;;0.00;0.00;;;;;;;;;;5086146;28;20469;-74
2022/10/06 15:14:33;;;;;;;0.00;0.00;;;;;;;;;;5102575;28;20032;-75
2022/10/06 15:17:00;;;;;;;0.00;0.00;;;;;;;;;;5103160;28;20016;-75